Portada
METAR-TAF:

METAR-TAF

Aeroports :

Châteaudun, França

latitud: 48-03N, longitud: 001-23E, altitud: 134 m

Observació

L'informe es va fer fa 20 minuts, a les 12:00 UTC
Vent 16 kt del Sud-Oest
Temperatura 21°C
Humitat 64%
Pressió 1020 hPa
Visibilitat: 9000 m
Núvols disperses a una alçada de 2600 ft
Cel ennuvolat a una alçada de 3400 ft
Cel cobert a una alçada de 4400 ft

METAR: LFOC 041200Z AUTO 23016KT 9000 SCT026 BKN034 OVC044 21/14 Q1020

Hora: 14:20 (12:20 UTC)

Pronòstic

L'informe es va fer fa 28 hores i 20 minuts, a les 08:00 UTC
Pronòstic vàlid del 03 a les 09 UTC al 04 a les 09 UTC
Vent 12 kt del Oest
Visibilitat 10 km o més
sense núvols per sota de 1500 mi sense presència de cumulonimbus.

TAF: LFOC 030800Z 0309/0409 27012KT CAVOK

Observacions i pronòstics meteorològics de més de 4000 aeroports (METAR i TAF).

Les estacions disponibles són els punts grocs i vermells al mapa.

Posi el ratolí al punt desitjat per veure el nom de l'estació.

Feu clic per veure les observacions i els pronòstics meteorològics.

Per canviar el mapa: feu clic els botons verds amb una creu de color negre per apropar; al botó verd amb un guió per allunyar la imatge; o en les fletxes verdes per a mapes adjacents.


METAR-TAF: